createdAt,value
2023-08-20T00:00:22.321Z,18.71
2023-08-20T00:03:14.959Z,18.72
2023-08-20T00:06:12.246Z,18.72
2023-08-20T00:09:02.993Z,18.73
2023-08-20T00:12:00.217Z,18.78
2023-08-20T00:15:06.223Z,18.76
2023-08-20T00:18:04.249Z,18.71
2023-08-20T00:20:55.585Z,18.69
2023-08-20T00:23:53.266Z,18.69
2023-08-20T00:26:44.344Z,18.65
2023-08-20T00:29:42.220Z,18.58
2023-08-20T00:32:33.020Z,18.54
2023-08-20T00:35:30.221Z,18.51
2023-08-20T00:38:20.894Z,18.47
2023-08-20T00:41:18.211Z,18.44
2023-08-20T00:44:08.862Z,18.40
2023-08-20T00:47:08.209Z,18.38
2023-08-20T00:49:59.285Z,18.38
2023-08-20T00:52:56.190Z,18.38
2023-08-20T00:55:46.892Z,18.37
2023-08-20T00:58:44.199Z,18.32
2023-08-20T01:01:34.874Z,18.27
2023-08-20T01:04:32.251Z,18.22
2023-08-20T01:07:35.709Z,18.20
2023-08-20T01:10:38.192Z,18.17
2023-08-20T01:13:29.023Z,18.11
2023-08-20T01:16:26.214Z,18.04
2023-08-20T01:19:22.835Z,18.03
2023-08-20T01:22:42.248Z,18.03
2023-08-20T01:26:22.158Z,18.00
2023-08-20T01:29:20.173Z,17.94
2023-08-20T01:32:13.089Z,17.92
2023-08-20T01:35:11.234Z,17.92
2023-08-20T01:38:01.885Z,17.90
2023-08-20T01:40:59.205Z,17.93
2023-08-20T01:43:49.865Z,17.92
2023-08-20T01:46:47.190Z,17.90
2023-08-20T01:49:44.190Z,17.87
2023-08-20T01:52:34.922Z,17.86
2023-08-20T01:55:33.029Z,17.83
2023-08-20T01:58:24.438Z,17.85
2023-08-20T02:01:21.234Z,17.87
2023-08-20T02:04:12.032Z,17.87
2023-08-20T02:07:09.213Z,17.87
2023-08-20T02:10:00.016Z,17.82
2023-08-20T02:12:57.165Z,17.82
2023-08-20T02:15:47.819Z,17.79
2023-08-20T02:18:45.193Z,17.75
2023-08-20T02:21:36.114Z,17.76
2023-08-20T02:24:33.180Z,17.68
2023-08-20T02:27:23.919Z,17.64
2023-08-20T02:30:21.188Z,17.64
2023-08-20T02:33:12.339Z,17.65
2023-08-20T02:36:11.173Z,17.66
2023-08-20T02:39:01.863Z,17.66
2023-08-20T02:41:59.219Z,17.65
2023-08-20T02:44:50.250Z,17.52
2023-08-20T02:47:47.214Z,17.49
2023-08-20T02:50:38.013Z,17.51
2023-08-20T02:53:35.166Z,17.52
2023-08-20T02:56:25.848Z,17.54
2023-08-20T02:59:23.172Z,17.51
2023-08-20T03:02:13.854Z,17.52
2023-08-20T03:05:13.158Z,17.49
2023-08-20T03:08:06.756Z,17.49
2023-08-20T03:11:04.143Z,17.49
2023-08-20T03:13:54.821Z,17.42
2023-08-20T03:16:52.146Z,17.45
2023-08-20T03:19:59.337Z,17.49
2023-08-20T03:22:57.150Z,17.49
2023-08-20T03:25:47.801Z,17.49
2023-08-20T03:28:45.139Z,17.48
2023-08-20T03:31:35.857Z,17.44
2023-08-20T03:34:33.135Z,17.39
2023-08-20T03:37:23.865Z,17.38
2023-08-20T03:40:21.167Z,17.39
2023-08-20T03:43:11.995Z,17.41
2023-08-20T03:46:10.189Z,17.44
2023-08-20T03:49:00.981Z,17.44
2023-08-20T03:51:58.123Z,17.41
2023-08-20T03:54:55.161Z,17.35
2023-08-20T03:57:46.277Z,17.37
2023-08-20T04:00:44.119Z,17.38
2023-08-20T04:03:34.827Z,17.35
2023-08-20T04:06:32.121Z,17.38
2023-08-20T04:09:22.951Z,17.42
2023-08-20T04:12:20.160Z,17.42
2023-08-20T04:15:10.912Z,17.49
2023-08-20T04:18:08.161Z,17.55
2023-08-20T04:20:59.048Z,17.62
2023-08-20T04:23:56.124Z,17.58
2023-08-20T04:26:46.859Z,17.66
2023-08-20T04:29:44.120Z,17.78
2023-08-20T04:32:34.900Z,17.87
2023-08-20T04:35:32.119Z,17.99
2023-08-20T04:38:23.450Z,18.07
2023-08-20T04:41:21.273Z,18.16
2023-08-20T04:44:12.033Z,18.24
2023-08-20T04:47:09.103Z,18.31
2023-08-20T04:49:59.763Z,18.47
2023-08-20T04:52:57.152Z,18.62
2023-08-20T04:55:47.827Z,18.76
2023-08-20T04:58:45.137Z,18.92
2023-08-20T05:01:35.840Z,19.06
2023-08-20T05:04:33.084Z,19.20
2023-08-20T05:07:30.079Z,19.34
2023-08-20T05:10:28.132Z,19.51
2023-08-20T05:13:21.234Z,19.71
2023-08-20T05:16:18.166Z,19.87
2023-08-20T05:19:08.864Z,20.06
2023-08-20T05:22:07.114Z,20.23
2023-08-20T05:25:04.197Z,20.45
2023-08-20T05:28:02.134Z,20.71
2023-08-20T05:30:57.640Z,20.92
2023-08-20T05:33:55.123Z,21.10
2023-08-20T05:36:45.804Z,21.33
2023-08-20T05:39:51.123Z,21.50
2023-08-20T05:42:41.825Z,21.72
2023-08-20T05:45:39.137Z,21.98
2023-08-20T05:48:30.201Z,22.30
2023-08-20T05:51:27.110Z,22.70
2023-08-20T05:54:17.858Z,23.15
2023-08-20T05:57:15.095Z,23.50
2023-08-20T06:00:06.805Z,23.78
2023-08-20T06:03:04.138Z,24.22
2023-08-20T06:05:54.880Z,24.63
2023-08-20T06:09:06.632Z,25.19
2023-08-20T06:11:58.806Z,25.81
2023-08-20T06:14:56.119Z,26.28
2023-08-20T06:17:46.814Z,26.78
2023-08-20T06:20:44.143Z,26.69
2023-08-20T06:23:44.105Z,26.70
2023-08-20T06:26:42.082Z,27.00
2023-08-20T06:29:32.860Z,27.52
2023-08-20T06:32:32.101Z,28.02
2023-08-20T06:35:22.832Z,28.44
2023-08-20T06:38:20.227Z,28.79
2023-08-20T06:41:10.921Z,29.16
2023-08-20T06:44:08.085Z,29.51
2023-08-20T06:46:58.769Z,29.78
2023-08-20T06:49:58.097Z,29.96
2023-08-20T06:52:48.790Z,29.92
2023-08-20T06:55:46.098Z,29.98
2023-08-20T06:58:37.204Z,29.64
2023-08-20T07:01:34.152Z,29.98
2023-08-20T07:04:25.095Z,30.46
2023-08-20T07:07:22.248Z,30.77
2023-08-20T07:10:13.301Z,30.94
2023-08-20T07:13:11.092Z,30.98
2023-08-20T07:16:01.946Z,31.40
2023-08-20T07:19:01.020Z,31.71
2023-08-20T07:21:51.712Z,31.76
2023-08-20T07:24:49.051Z,32.07
2023-08-20T07:27:39.717Z,31.91
2023-08-20T07:30:37.051Z,31.57
2023-08-20T07:33:27.717Z,32.02
2023-08-20T07:36:26.084Z,32.42
2023-08-20T07:39:18.666Z,32.59
2023-08-20T07:42:16.217Z,32.80
2023-08-20T07:45:08.320Z,32.96
2023-08-20T07:48:07.245Z,33.35
2023-08-20T07:50:58.201Z,33.75
2023-08-20T07:53:55.054Z,33.86
2023-08-20T07:57:14.013Z,33.97
2023-08-20T08:00:12.104Z,33.88
2023-08-20T08:03:02.867Z,34.11
2023-08-20T08:06:02.329Z,34.33
2023-08-20T08:08:54.820Z,33.80
2023-08-20T08:11:54.067Z,34.24
2023-08-20T08:14:45.001Z,34.52
2023-08-20T08:17:42.045Z,34.38
2023-08-20T08:20:33.060Z,34.21
2023-08-20T08:23:30.049Z,33.77
2023-08-20T08:26:20.737Z,33.56
2023-08-20T08:29:18.066Z,33.92
2023-08-20T08:32:08.630Z,33.75
2023-08-20T08:35:06.074Z,33.99
2023-08-20T08:38:11.021Z,33.77
2023-08-20T08:41:02.509Z,33.56
2023-08-20T08:44:01.128Z,33.52
2023-08-20T08:46:52.717Z,33.75
2023-08-20T08:49:53.084Z,33.44
2023-08-20T08:52:47.150Z,33.24
2023-08-20T08:55:45.026Z,33.28
2023-08-20T08:58:35.721Z,33.92
2023-08-20T09:01:34.590Z,34.16
2023-08-20T09:04:25.645Z,33.17
2023-08-20T09:07:23.046Z,32.64
2023-08-20T09:10:13.666Z,32.64
2023-08-20T09:13:12.043Z,32.96
2023-08-20T09:16:07.922Z,33.01
2023-08-20T09:19:09.020Z,33.27
2023-08-20T09:22:09.027Z,33.66
2023-08-20T09:24:59.866Z,33.83
2023-08-20T09:27:57.040Z,33.28
2023-08-20T09:31:03.922Z,32.42
2023-08-20T09:34:03.042Z,32.90
2023-08-20T09:36:53.923Z,33.08
2023-08-20T09:39:51.462Z,32.39
2023-08-20T09:42:43.483Z,32.24
2023-08-20T09:45:41.067Z,32.42
2023-08-20T09:48:38.685Z,31.69
2023-08-20T09:51:41.038Z,31.15
2023-08-20T09:54:51.776Z,32.12
2023-08-20T09:57:50.023Z,32.81
2023-08-20T10:00:40.894Z,33.31
2023-08-20T10:03:38.045Z,33.48
2023-08-20T10:06:30.509Z,33.21
2023-08-20T10:09:29.128Z,33.42
2023-08-20T10:12:21.331Z,33.88
2023-08-20T10:15:22.154Z,34.21
2023-08-20T10:18:15.364Z,34.31
2023-08-20T10:21:16.020Z,34.57
2023-08-20T10:24:10.012Z,34.64
2023-08-20T10:27:19.005Z,34.51
2023-08-20T10:30:19.638Z,34.48
2023-08-20T10:33:16.990Z,34.81
2023-08-20T10:36:28.060Z,35.20
2023-08-20T10:39:32.979Z,35.23
2023-08-20T10:42:34.000Z,35.39
2023-08-20T10:45:31.062Z,35.54
2023-08-20T10:48:21.672Z,35.33
2023-08-20T10:51:36.039Z,35.12
2023-08-20T10:54:26.854Z,34.72
2023-08-20T10:57:25.485Z,34.98
2023-08-20T11:00:17.638Z,35.20
2023-08-20T11:03:16.012Z,35.03
2023-08-20T11:06:07.900Z,34.07
2023-08-20T11:09:06.004Z,34.23
2023-08-20T11:11:57.342Z,34.82
2023-08-20T11:14:57.103Z,35.16
2023-08-20T11:17:51.335Z,35.53
2023-08-20T11:20:49.030Z,35.81
2023-08-20T11:23:42.738Z,35.73
2023-08-20T11:26:42.047Z,35.88
2023-08-20T11:29:32.823Z,35.47
2023-08-20T11:32:31.986Z,35.29
2023-08-20T11:35:22.800Z,35.34
2023-08-20T11:38:21.036Z,35.74
2023-08-20T11:41:11.734Z,35.81
2023-08-20T11:44:09.002Z,35.14
2023-08-20T11:46:59.721Z,34.09
2023-08-20T11:50:11.988Z,33.28
2023-08-20T11:53:04.337Z,34.23
2023-08-20T11:56:01.976Z,34.79
2023-08-20T11:58:53.645Z,35.50
2023-08-20T12:01:51.046Z,35.95
2023-08-20T12:04:41.769Z,36.59
2023-08-20T12:07:39.289Z,36.57
2023-08-20T12:10:32.521Z,36.50
2023-08-20T12:13:29.995Z,36.49
2023-08-20T12:16:24.466Z,36.36
2023-08-20T12:19:22.020Z,35.60
2023-08-20T12:22:13.345Z,36.02
2023-08-20T12:25:10.994Z,36.18
2023-08-20T12:28:08.941Z,36.06
2023-08-20T12:31:06.056Z,36.47
2023-08-20T12:33:56.619Z,36.74
2023-08-20T12:36:54.053Z,36.14
2023-08-20T12:39:44.772Z,36.22
2023-08-20T12:42:43.762Z,36.22
2023-08-20T12:45:35.489Z,36.21
2023-08-20T12:48:32.998Z,36.31
2023-08-20T12:51:23.694Z,36.37
2023-08-20T12:54:21.037Z,36.22
2023-08-20T12:57:11.708Z,35.67
2023-08-20T13:00:19.004Z,34.40
2023-08-20T13:03:10.543Z,34.57
2023-08-20T13:06:07.980Z,35.00
2023-08-20T13:08:59.450Z,35.10
2023-08-20T13:11:59.000Z,34.94
2023-08-20T13:14:50.122Z,34.79
2023-08-20T13:17:48.204Z,35.16
2023-08-20T13:20:38.960Z,35.34
2023-08-20T13:23:35.942Z,35.34
2023-08-20T13:26:26.604Z,35.25
2023-08-20T13:29:23.950Z,35.06
2023-08-20T13:32:14.633Z,35.00
2023-08-20T13:35:13.030Z,34.76
2023-08-20T13:38:05.653Z,34.55
2023-08-20T13:41:09.235Z,33.69
2023-08-20T13:44:03.913Z,33.29
2023-08-20T13:47:03.980Z,33.69
2023-08-20T13:49:54.675Z,33.76
2023-08-20T13:52:51.940Z,34.02
2023-08-20T13:55:42.820Z,34.09
2023-08-20T13:58:39.943Z,34.19
2023-08-20T14:01:30.575Z,33.92
2023-08-20T14:04:28.200Z,33.97
2023-08-20T14:07:19.679Z,33.99
2023-08-20T14:10:17.958Z,33.86
2023-08-20T14:13:08.601Z,33.86
2023-08-20T14:16:06.004Z,33.77
2023-08-20T14:18:56.779Z,33.65
2023-08-20T14:21:53.925Z,33.61
2023-08-20T14:24:44.545Z,33.68
2023-08-20T14:27:41.933Z,33.51
2023-08-20T14:30:36.983Z,33.18
2023-08-20T14:33:38.116Z,32.97
2023-08-20T14:36:28.806Z,32.87
2023-08-20T14:39:25.953Z,32.69
2023-08-20T14:42:16.531Z,32.67
2023-08-20T14:45:13.966Z,32.64
2023-08-20T14:48:05.177Z,32.40
2023-08-20T14:51:02.970Z,32.70
2023-08-20T14:53:53.662Z,32.66
2023-08-20T14:56:51.932Z,32.76
2023-08-20T14:59:43.142Z,32.43
2023-08-20T15:02:40.011Z,32.18
2023-08-20T15:05:31.581Z,31.84
2023-08-20T15:08:28.912Z,31.63
2023-08-20T15:11:25.977Z,31.87
2023-08-20T15:14:16.697Z,31.73
2023-08-20T15:17:13.954Z,31.60
2023-08-20T15:20:13.400Z,31.40
2023-08-20T15:23:11.933Z,31.25
2023-08-20T15:26:02.638Z,31.11
2023-08-20T15:28:59.951Z,30.95
2023-08-20T15:31:52.663Z,30.82
2023-08-20T15:34:49.944Z,30.94
2023-08-20T15:37:41.097Z,30.69
2023-08-20T15:40:39.174Z,30.57
2023-08-20T15:43:30.117Z,30.49
2023-08-20T15:46:27.935Z,30.40
2023-08-20T15:49:18.662Z,30.34
2023-08-20T15:52:15.901Z,30.31
2023-08-20T15:55:07.172Z,30.16
2023-08-20T15:58:04.885Z,29.99
2023-08-20T16:00:55.493Z,29.81
2023-08-20T16:03:53.106Z,29.80
2023-08-20T16:06:50.019Z,29.71
2023-08-20T16:09:46.913Z,29.64
2023-08-20T16:12:41.423Z,29.55
2023-08-20T16:15:38.908Z,29.51
2023-08-20T16:18:29.610Z,29.48
2023-08-20T16:21:26.924Z,29.43
2023-08-20T16:24:17.598Z,29.34
2023-08-20T16:27:14.939Z,29.29
2023-08-20T16:30:07.424Z,29.19
2023-08-20T16:33:04.983Z,29.13
2023-08-20T16:35:55.827Z,29.00
2023-08-20T16:38:52.893Z,28.98
2023-08-20T16:41:43.700Z,28.86
2023-08-20T16:44:40.861Z,28.79
2023-08-20T16:47:31.561Z,28.72
2023-08-20T16:50:29.872Z,28.67
2023-08-20T16:53:20.629Z,28.56
2023-08-20T16:56:17.891Z,28.51
2023-08-20T16:59:09.459Z,28.40
2023-08-20T17:02:06.919Z,28.31
2023-08-20T17:04:57.644Z,28.16
2023-08-20T17:07:54.914Z,28.02
2023-08-20T17:10:45.657Z,27.90
2023-08-20T17:13:43.904Z,27.73
2023-08-20T17:16:42.271Z,27.61
2023-08-20T17:19:39.642Z,27.45
2023-08-20T17:22:30.946Z,27.25
2023-08-20T17:25:27.886Z,27.10
2023-08-20T17:28:18.824Z,26.92
2023-08-20T17:31:15.923Z,26.63
2023-08-20T17:34:06.911Z,26.49
2023-08-20T17:37:05.995Z,26.31
2023-08-20T17:39:56.576Z,26.18
2023-08-20T17:42:53.865Z,26.04
2023-08-20T17:45:44.920Z,25.86
2023-08-20T17:48:41.855Z,25.72
2023-08-20T17:51:32.483Z,25.52
2023-08-20T17:54:29.885Z,25.32
2023-08-20T17:57:20.776Z,25.18
2023-08-20T18:00:17.897Z,25.00
2023-08-20T18:03:08.464Z,24.84
2023-08-20T18:06:07.874Z,24.66
2023-08-20T18:08:58.444Z,24.48
2023-08-20T18:11:55.863Z,24.35
2023-08-20T18:14:46.412Z,24.23
2023-08-20T18:17:43.912Z,24.08
2023-08-20T18:20:34.702Z,23.94
2023-08-20T18:23:31.905Z,23.84
2023-08-20T18:26:22.661Z,23.68
2023-08-20T18:29:19.874Z,23.49
2023-08-20T18:32:10.431Z,23.36
2023-08-20T18:35:07.871Z,23.25
2023-08-20T18:37:58.419Z,23.14
2023-08-20T18:40:55.842Z,23.06
2023-08-20T18:43:46.476Z,22.96
2023-08-20T18:46:43.862Z,22.88
2023-08-20T18:49:35.272Z,22.78
2023-08-20T18:52:31.852Z,22.70
2023-08-20T18:55:23.368Z,22.60
2023-08-20T18:58:20.874Z,22.47
2023-08-20T19:01:12.207Z,22.40
2023-08-20T19:04:10.985Z,22.33
2023-08-20T19:07:02.308Z,22.23
2023-08-20T19:09:59.909Z,22.10
2023-08-20T19:12:50.467Z,22.04
2023-08-20T19:15:54.935Z,21.96
2023-08-20T19:18:52.367Z,21.81
2023-08-20T19:21:49.836Z,21.71
2023-08-20T19:24:40.435Z,21.62
2023-08-20T19:27:38.811Z,21.58
2023-08-20T19:30:36.863Z,21.50
2023-08-20T19:33:27.538Z,21.49
2023-08-20T19:36:24.869Z,21.44
2023-08-20T19:39:17.031Z,21.40
2023-08-20T19:42:15.844Z,21.33
2023-08-20T19:45:07.165Z,21.29
2023-08-20T19:48:04.060Z,21.24
2023-08-20T19:50:54.692Z,21.20
2023-08-20T19:53:51.841Z,21.14
2023-08-20T19:56:42.532Z,21.06
2023-08-20T19:59:39.841Z,21.02
2023-08-20T20:02:30.449Z,20.92
2023-08-20T20:05:28.826Z,20.89
2023-08-20T20:08:20.201Z,20.81
2023-08-20T20:11:18.836Z,20.72
2023-08-20T20:14:09.376Z,20.71
2023-08-20T20:17:06.829Z,20.68
2023-08-20T20:19:57.383Z,20.65
2023-08-20T20:22:54.810Z,20.62
2023-08-20T20:25:45.402Z,20.58
2023-08-20T20:28:46.837Z,20.49
2023-08-20T20:31:37.501Z,20.37
2023-08-20T20:34:34.849Z,20.28
2023-08-20T20:37:25.662Z,20.23
2023-08-20T20:40:22.799Z,20.17
2023-08-20T20:43:13.496Z,20.12
2023-08-20T20:46:11.022Z,20.02
2023-08-20T20:49:02.165Z,19.95
2023-08-20T20:51:59.799Z,19.93
2023-08-20T20:54:50.385Z,19.96
2023-08-20T20:57:48.199Z,19.96
2023-08-20T21:00:38.801Z,19.93
2023-08-20T21:03:35.803Z,19.87
2023-08-20T21:06:26.405Z,19.87
2023-08-20T21:09:23.819Z,19.85
2023-08-20T21:12:14.358Z,19.85
2023-08-20T21:15:11.829Z,19.82
2023-08-20T21:18:02.531Z,19.83
2023-08-20T21:20:59.812Z,19.76
2023-08-20T21:23:50.434Z,19.68
2023-08-20T21:26:47.788Z,19.61
2023-08-20T21:29:39.172Z,19.59
2023-08-20T21:32:36.115Z,19.62
2023-08-20T21:35:26.920Z,19.59
2023-08-20T21:38:24.801Z,19.55
2023-08-20T21:41:15.350Z,19.51
2023-08-20T21:44:12.782Z,19.47
2023-08-20T21:47:20.211Z,19.44
2023-08-20T21:50:17.861Z,19.47
2023-08-20T21:53:08.429Z,19.43
2023-08-20T21:56:05.806Z,19.37
2023-08-20T21:58:56.469Z,19.35
2023-08-20T22:01:53.827Z,19.37
2023-08-20T22:04:44.947Z,19.34
2023-08-20T22:07:41.787Z,19.33
2023-08-20T22:10:32.322Z,19.30
2023-08-20T22:13:29.813Z,19.24
2023-08-20T22:16:20.417Z,19.20
2023-08-20T22:19:17.774Z,19.20
2023-08-20T22:22:08.336Z,19.17
2023-08-20T22:25:05.794Z,19.16
2023-08-20T22:27:56.364Z,19.20
2023-08-20T22:30:53.765Z,19.20
2023-08-20T22:33:44.340Z,19.08
2023-08-20T22:36:41.778Z,19.04
2023-08-20T22:39:32.337Z,19.03
2023-08-20T22:42:29.734Z,19.07
2023-08-20T22:45:26.781Z,19.02
2023-08-20T22:48:17.474Z,18.89
2023-08-20T22:51:14.807Z,18.92
2023-08-20T22:54:05.374Z,18.90
2023-08-20T22:57:02.803Z,18.93
2023-08-20T22:59:53.350Z,18.82
2023-08-20T23:02:50.809Z,18.79
2023-08-20T23:05:41.392Z,18.80
2023-08-20T23:08:38.761Z,18.79
2023-08-20T23:11:29.317Z,18.80
2023-08-20T23:14:26.767Z,18.78
2023-08-20T23:17:19.108Z,18.76
2023-08-20T23:20:16.747Z,18.75
2023-08-20T23:23:07.351Z,18.72
2023-08-20T23:26:04.762Z,18.65
2023-08-20T23:28:55.534Z,18.62
2023-08-20T23:31:52.763Z,18.64
2023-08-20T23:34:43.624Z,18.64
2023-08-20T23:37:40.761Z,18.67
2023-08-20T23:40:31.320Z,18.65
2023-08-20T23:43:29.762Z,18.71
2023-08-20T23:46:25.502Z,18.69
2023-08-20T23:49:27.753Z,18.72
2023-08-20T23:52:18.352Z,18.71
2023-08-20T23:55:15.734Z,18.72
2023-08-20T23:58:12.729Z,18.67
